createdAt,value
2018-08-11T18:10:40.268Z,1006.81
2018-08-11T18:11:40.137Z,1006.90
2018-08-11T18:12:40.113Z,1006.86
2018-08-11T18:13:39.998Z,1006.91
2018-08-11T18:14:39.921Z,1006.90
2018-08-11T18:15:39.795Z,1006.93
2018-08-11T18:16:39.685Z,1006.89
2018-08-11T18:17:39.586Z,1006.87
2018-08-11T18:18:39.454Z,1006.85
2018-08-11T18:19:39.370Z,1006.86
2018-08-11T18:20:39.204Z,1006.86
2018-08-11T18:21:39.110Z,1006.86
2018-08-11T18:22:38.986Z,1006.88
2018-08-11T18:23:38.852Z,1006.86
2018-08-11T18:24:38.792Z,1006.88
2018-08-11T18:25:38.570Z,1006.84
2018-08-11T18:26:38.448Z,1006.90
2018-08-11T18:27:38.329Z,1006.88
2018-08-11T18:28:38.198Z,1006.87
2018-08-11T18:29:38.073Z,1006.81
2018-08-11T18:30:37.978Z,1006.82
2018-08-11T18:31:37.830Z,1006.80
2018-08-11T18:32:37.708Z,1006.84
2018-08-11T18:33:37.589Z,1006.85
2018-08-11T18:34:37.482Z,1006.85
2018-08-11T18:35:37.368Z,1006.89
2018-08-11T18:36:37.215Z,1006.87
2018-08-11T18:37:37.091Z,1006.91
2018-08-11T18:38:36.966Z,1006.89
2018-08-11T18:39:36.847Z,1006.90
2018-08-11T18:40:36.723Z,1006.89
2018-08-11T18:41:36.627Z,1006.90
2018-08-11T18:42:36.478Z,1006.92
2018-08-11T18:43:36.360Z,1006.88
2018-08-11T18:44:36.239Z,1006.93
2018-08-11T18:45:36.123Z,1006.89
2018-08-11T18:46:36.026Z,1006.89
2018-08-11T18:47:36.140Z,1006.89
2018-08-11T18:48:36.106Z,1006.91
2018-08-11T18:49:35.653Z,1006.91
2018-08-11T18:50:35.514Z,1006.90
2018-08-11T18:51:35.423Z,1006.89
2018-08-11T18:52:36.127Z,1006.89
2018-08-11T18:53:35.151Z,1006.87
2018-08-11T18:54:35.081Z,1006.89
2018-08-11T18:55:34.909Z,1006.88
2018-08-11T18:56:34.819Z,1006.85
2018-08-11T18:57:34.677Z,1006.90
2018-08-11T18:58:34.558Z,1006.94
2018-08-11T18:59:34.445Z,1006.94
2018-08-11T19:00:34.337Z,1006.95
2018-08-11T19:01:34.247Z,1006.96
2018-08-11T19:02:34.108Z,1006.97
2018-08-11T19:03:33.989Z,1006.97
2018-08-11T19:04:33.876Z,1007.00
2018-08-11T19:05:33.762Z,1007.02
2018-08-11T19:06:33.727Z,1006.99
2018-08-11T19:07:33.539Z,1006.98
2018-08-11T19:08:33.430Z,1007.01
2018-08-11T19:09:33.324Z,1007.04
2018-08-11T19:10:33.217Z,1007.00
2018-08-11T19:11:33.140Z,1006.99
2018-08-11T19:12:33.021Z,1007.01
2018-08-11T19:13:32.900Z,1007.02
2018-08-11T19:14:32.797Z,1007.01
2018-08-11T19:15:32.692Z,1007.02
2018-08-11T19:16:32.618Z,1007.01
2018-08-11T19:17:32.485Z,1007.02
2018-08-11T19:18:32.378Z,1007.02
2018-08-11T19:19:32.271Z,1007.05
2018-08-11T19:20:32.168Z,1007.08
2018-08-11T19:21:32.067Z,1007.08
2018-08-11T19:22:31.995Z,1007.11
2018-08-11T19:23:31.869Z,1007.12
2018-08-11T19:24:31.769Z,1007.11
2018-08-11T19:25:31.710Z,1007.10
2018-08-11T19:26:31.718Z,1007.11
2018-08-11T19:27:31.503Z,1007.10
2018-08-11T19:28:31.379Z,1007.10
2018-08-11T19:29:31.282Z,1007.10
2018-08-11T19:30:31.192Z,1007.09
2018-08-11T19:31:31.098Z,1007.10
2018-08-11T19:32:31.058Z,1007.12
2018-08-11T19:33:30.940Z,1007.21
2018-08-11T19:34:30.809Z,1007.18
2018-08-11T19:35:30.701Z,1007.17
2018-08-11T19:36:30.602Z,1007.17
2018-08-11T19:37:30.502Z,1007.16
2018-08-11T19:38:30.438Z,1007.22
2018-08-11T19:39:30.318Z,1007.16
2018-08-11T19:40:30.225Z,1007.22
2018-08-11T19:41:30.125Z,1007.19
2018-08-11T19:42:30.032Z,1007.17
2018-08-11T19:43:29.964Z,1007.18
2018-08-11T19:44:29.843Z,1007.18
2018-08-11T19:45:29.758Z,1007.14
2018-08-11T19:46:29.726Z,1007.14
2018-08-11T19:47:29.580Z,1007.11
2018-08-11T19:48:29.494Z,1007.10
2018-08-11T19:49:29.425Z,1007.11
2018-08-11T19:50:29.320Z,1007.10
2018-08-11T19:51:29.224Z,1007.14
2018-08-11T19:52:29.136Z,1007.09
2018-08-11T19:53:29.052Z,1007.15
2018-08-11T19:54:28.993Z,1007.15
2018-08-11T19:55:28.883Z,1007.13
2018-08-11T19:56:28.789Z,1007.11
2018-08-11T19:57:28.703Z,1007.15
2018-08-11T19:58:28.617Z,1007.16
2018-08-11T19:59:28.613Z,1007.15
2018-08-11T20:00:28.449Z,1007.15
2018-08-11T20:01:28.428Z,1007.17
2018-08-11T20:02:28.284Z,1007.16
2018-08-11T20:03:28.206Z,1007.16
2018-08-11T20:04:28.122Z,1007.16
2018-08-11T20:05:28.072Z,1007.14
2018-08-11T20:06:27.950Z,1007.17
2018-08-11T20:07:27.872Z,1007.18
2018-08-11T20:08:27.773Z,1007.19
2018-08-11T20:09:27.687Z,1007.17
2018-08-11T20:10:27.630Z,1007.17
2018-08-11T20:11:27.520Z,1007.18
2018-08-11T20:12:27.437Z,1007.19
2018-08-11T20:13:27.354Z,1007.21
2018-08-11T20:14:27.285Z,1007.16
2018-08-11T20:15:27.307Z,1007.15
2018-08-11T20:16:27.141Z,1007.17
2018-08-11T20:17:27.050Z,1007.17
2018-08-11T20:18:26.965Z,1007.18
2018-08-11T20:19:27.003Z,1007.17
2018-08-11T20:20:26.844Z,1007.18
2018-08-11T20:21:26.744Z,1007.18
2018-08-11T20:22:26.673Z,1007.21
2018-08-11T20:23:26.597Z,1007.21
2018-08-11T20:24:26.522Z,1007.22
2018-08-11T20:25:26.638Z,1007.22
2018-08-11T20:26:26.377Z,1007.18
2018-08-11T20:27:26.300Z,1007.20
2018-08-11T20:28:26.226Z,1007.22
2018-08-11T20:29:26.156Z,1007.22
2018-08-11T20:30:26.127Z,1007.22
2018-08-11T20:31:26.024Z,1007.23
2018-08-11T20:32:25.944Z,1007.22
2018-08-11T20:33:25.883Z,1007.17
2018-08-11T20:34:25.807Z,1007.18
2018-08-11T20:35:25.729Z,1007.15
2018-08-11T20:36:25.689Z,1007.12
2018-08-11T20:37:25.596Z,1007.17
2018-08-11T20:38:25.526Z,1007.16
2018-08-11T20:39:25.463Z,1007.17
2018-08-11T20:40:25.397Z,1007.17
2018-08-11T20:41:25.359Z,1007.16
2018-08-11T20:42:25.268Z,1007.15
2018-08-11T20:43:25.203Z,1007.18
2018-08-11T20:44:25.145Z,1007.18
2018-08-11T20:45:25.070Z,1007.20
2018-08-11T20:46:25.027Z,1007.14
2018-08-11T20:47:24.949Z,1007.18
2018-08-11T20:48:24.870Z,1007.18
2018-08-11T20:49:24.809Z,1007.21
2018-08-11T20:50:24.751Z,1007.20
2018-08-11T20:51:24.712Z,1007.22
2018-08-11T20:52:24.616Z,1007.20
2018-08-11T20:53:24.551Z,1007.24
2018-08-11T20:54:24.485Z,1007.22
2018-08-11T20:55:24.429Z,1007.25
2018-08-11T20:56:24.397Z,1007.26
2018-08-11T20:57:24.296Z,1007.21
2018-08-11T20:58:24.239Z,1007.22
2018-08-11T20:59:24.175Z,1007.22
2018-08-11T21:00:24.143Z,1007.22
2018-08-11T21:01:24.103Z,1007.18
2018-08-11T21:02:23.999Z,1007.19
2018-08-11T21:03:23.932Z,1007.17
2018-08-11T21:04:23.874Z,1007.18
2018-08-11T21:05:23.814Z,1007.21
2018-08-11T21:06:23.782Z,1007.19
2018-08-11T21:07:23.693Z,1007.15
2018-08-11T21:08:23.632Z,1007.17
2018-08-11T21:09:23.571Z,1007.17
2018-08-11T21:10:23.514Z,1007.21
2018-08-11T21:11:23.476Z,1007.16
2018-08-11T21:12:23.396Z,1007.16
2018-08-11T21:13:23.331Z,1007.19
2018-08-11T21:14:23.266Z,1007.16
2018-08-11T21:15:23.242Z,1007.20
2018-08-11T21:16:23.179Z,1007.17
2018-08-11T21:17:23.093Z,1007.23
2018-08-11T21:18:23.047Z,1007.22
2018-08-11T21:19:22.985Z,1007.23
2018-08-11T21:20:22.928Z,1007.23
2018-08-11T21:21:22.906Z,1007.19
2018-08-11T21:22:22.825Z,1007.23
2018-08-11T21:23:22.795Z,1007.18
2018-08-11T21:24:22.717Z,1007.23
2018-08-11T21:25:22.663Z,1007.22
2018-08-11T21:26:22.668Z,1007.17
2018-08-11T21:27:22.581Z,1007.19
2018-08-11T21:28:22.535Z,1007.15
2018-08-11T21:29:22.452Z,1007.17
2018-08-11T21:30:22.400Z,1007.16
2018-08-11T21:31:22.376Z,1007.15
2018-08-11T21:32:22.293Z,1007.16
2018-08-11T21:33:22.243Z,1007.15
2018-08-11T21:34:22.195Z,1007.13
2018-08-11T21:35:22.150Z,1007.12
2018-08-11T21:36:22.125Z,1007.07
2018-08-11T21:37:22.048Z,1007.08
2018-08-11T21:38:21.989Z,1007.08
2018-08-11T21:39:21.940Z,1007.07
2018-08-11T21:40:21.889Z,1007.10
2018-08-11T21:41:21.875Z,1007.04
2018-08-11T21:42:21.797Z,1007.05
2018-08-11T21:43:21.749Z,1007.04
2018-08-11T21:44:21.706Z,1007.05
2018-08-11T21:45:21.665Z,1007.04
2018-08-11T21:46:21.662Z,1007.04
2018-08-11T21:47:21.574Z,1007.05
2018-08-11T21:48:21.544Z,1007.05
2018-08-11T21:49:21.491Z,1007.04
2018-08-11T21:50:21.482Z,1007.07
2018-08-11T21:51:21.421Z,1007.03
2018-08-11T21:52:21.346Z,1007.03
2018-08-11T21:53:21.284Z,1007.09
2018-08-11T21:54:21.239Z,1007.09
2018-08-11T21:55:21.210Z,1007.07
2018-08-11T21:56:21.178Z,1007.05
2018-08-11T21:57:21.101Z,1007.05
2018-08-11T21:58:21.054Z,1007.04
2018-08-11T21:59:21.011Z,1007.03
2018-08-11T22:00:20.966Z,1007.05
2018-08-11T22:01:20.923Z,1007.06
2018-08-11T22:02:20.905Z,1007.05
2018-08-11T22:03:20.836Z,1007.03
2018-08-11T22:04:20.792Z,1007.03
2018-08-11T22:05:20.748Z,1007.08
2018-08-11T22:06:20.711Z,1007.03
2018-08-11T22:07:20.776Z,1007.09
2018-08-11T22:08:20.621Z,1007.06
2018-08-11T22:09:20.578Z,1007.11
2018-08-11T22:10:20.546Z,1007.10
2018-08-11T22:11:20.495Z,1007.14
2018-08-11T22:12:20.478Z,1007.15
2018-08-11T22:13:20.408Z,1007.08
2018-08-11T22:14:20.375Z,1007.16
2018-08-11T22:15:20.316Z,1007.07
2018-08-11T22:16:20.284Z,1007.10
2018-08-11T22:17:20.259Z,1007.11
2018-08-11T22:18:20.200Z,1007.07
2018-08-11T22:19:20.151Z,1007.08
2018-08-11T22:20:20.113Z,1007.06
2018-08-11T22:21:20.071Z,1007.08
2018-08-11T22:22:20.060Z,1007.06
2018-08-11T22:23:20.004Z,1007.05
2018-08-11T22:24:19.976Z,1007.06
2018-08-11T22:25:19.913Z,1007.03
2018-08-11T22:26:19.877Z,1007.03
2018-08-11T22:27:19.864Z,1007.03
2018-08-11T22:28:19.803Z,1007.06
2018-08-11T22:29:19.764Z,1007.02
2018-08-11T22:30:19.730Z,1006.98
2018-08-11T22:31:19.689Z,1006.99
2018-08-11T22:32:19.683Z,1007.00
2018-08-11T22:33:19.615Z,1006.98
2018-08-11T22:34:19.595Z,1006.97
2018-08-11T22:35:19.542Z,1006.97
2018-08-11T22:36:19.507Z,1007.02
2018-08-11T22:37:19.506Z,1007.00
2018-08-11T22:38:19.432Z,1006.99
2018-08-11T22:39:19.399Z,1006.99
2018-08-11T22:40:19.365Z,1007.00
2018-08-11T22:41:19.333Z,1006.94
2018-08-11T22:42:19.323Z,1006.94
2018-08-11T22:43:19.260Z,1006.96
2018-08-11T22:44:19.228Z,1006.95
2018-08-11T22:45:19.192Z,1006.96
2018-08-11T22:46:19.166Z,1006.96
2018-08-11T22:47:19.320Z,1006.99
2018-08-11T22:48:19.097Z,1006.98
2018-08-11T22:49:19.055Z,1006.98
2018-08-11T22:50:19.019Z,1006.99
2018-08-11T22:51:18.995Z,1006.98
2018-08-11T22:52:18.948Z,1006.98
2018-08-11T22:53:18.939Z,1006.97
2018-08-11T22:54:18.877Z,1006.94
2018-08-11T22:55:18.849Z,1006.92
2018-08-11T22:56:18.823Z,1006.95
2018-08-11T22:57:18.786Z,1006.94
2018-08-11T22:58:18.788Z,1006.95
2018-08-11T22:59:18.732Z,1006.97
2018-08-11T23:00:18.703Z,1006.95
2018-08-11T23:01:18.672Z,1006.93
2018-08-11T23:02:18.649Z,1006.89
2018-08-11T23:03:18.637Z,1006.89
2018-08-11T23:04:18.588Z,1006.90
2018-08-11T23:05:18.550Z,1006.89
2018-08-11T23:06:18.524Z,1006.91
2018-08-11T23:07:18.502Z,1006.88
2018-08-11T23:08:18.511Z,1006.88
2018-08-11T23:09:18.461Z,1006.86
2018-08-11T23:10:18.451Z,1006.86
2018-08-11T23:11:18.427Z,1006.86
2018-08-11T23:12:18.388Z,1006.83
2018-08-11T23:13:18.413Z,1006.85
2018-08-11T23:14:18.350Z,1006.82
2018-08-11T23:15:18.325Z,1006.79
2018-08-11T23:16:18.302Z,1006.79
2018-08-11T23:17:18.290Z,1006.80
2018-08-11T23:18:18.299Z,1006.77
2018-08-11T23:19:18.246Z,1006.77
2018-08-11T23:20:18.229Z,1006.75
2018-08-11T23:21:18.216Z,1006.75
2018-08-11T23:22:18.199Z,1006.77
2018-08-11T23:23:18.206Z,1006.79
2018-08-11T23:24:18.150Z,1006.75
2018-08-11T23:25:18.135Z,1006.77
2018-08-11T23:26:18.121Z,1006.80
2018-08-11T23:27:18.095Z,1006.68
2018-08-11T23:28:18.106Z,1006.70
2018-08-11T23:29:18.067Z,1006.72
2018-08-11T23:30:18.060Z,1006.74
2018-08-11T23:31:18.032Z,1006.72
2018-08-11T23:32:18.020Z,1006.74
2018-08-11T23:33:18.029Z,1006.72
2018-08-11T23:34:17.988Z,1006.71
2018-08-11T23:35:17.976Z,1006.72
2018-08-11T23:36:17.953Z,1006.66
2018-08-11T23:37:17.932Z,1006.69
2018-08-11T23:38:17.943Z,1006.70
2018-08-11T23:39:17.914Z,1006.67
2018-08-11T23:40:17.877Z,1006.69
2018-08-11T23:41:17.862Z,1006.63
2018-08-11T23:42:17.841Z,1006.68
2018-08-11T23:43:17.851Z,1006.65
2018-08-11T23:44:17.807Z,1006.68
2018-08-11T23:45:17.789Z,1006.64
2018-08-11T23:46:17.772Z,1006.64
2018-08-11T23:47:17.763Z,1006.61
2018-08-11T23:48:17.766Z,1006.61
2018-08-11T23:49:17.719Z,1006.60
2018-08-11T23:50:17.700Z,1006.65
2018-08-11T23:51:17.709Z,1006.60
2018-08-11T23:52:17.666Z,1006.60
2018-08-11T23:53:17.695Z,1006.59
2018-08-11T23:54:17.638Z,1006.57
2018-08-11T23:55:17.624Z,1006.58
2018-08-11T23:56:17.609Z,1006.52
2018-08-11T23:57:17.594Z,1006.54
2018-08-11T23:58:17.582Z,1006.56
2018-08-11T23:59:17.617Z,1006.57
